Latest Coastal Weather Observations for Hopetoun North

IDW60701

Issued at 3:25 am WST Saturday 19 April 2014 (issued every 10 minutes, with the page automatically refreshed every 10 minutes)

About coastal observations | Map of coastal stations | Coastal observations for WA | Marine services | Other Formats
Station Details ID: 009961 Name: HOPETOUN NORTH Lat: -33.93 Lon: 120.13 Height: 26.0 m
Data from the previous 72 hours. | See also: Recent months at Hopetoun North
Date/Time
WST
Temp

°C
Wind Pressure Rain
since 9am
mm
Weather Cloud Vis
km
Sea
Height
m
Swell
Dir
 
Speed
knots
Gust
knots
hPa Trend Height
m
Period
s
Dir
19/03:00am - CALM 0 0 1016.9 - 0.0 - - - - - - -
19/02:30am - NE 2 3 1017.3 - 0.0 - - - - - - -
19/02:00am - E 3 4 1017.6 - 0.0 - - - - - - -
19/01:30am - ESE 4 6 1018.0 - 0.0 - - - - - - -
19/01:00am - ESE 3 4 1018.3 - 0.0 - - - - - - -
19/12:30am - E 4 5 1018.6 - 0.0 - - - - - - -
19/12:00am - E 1 2 1018.7 - 0.0 - - - - - - -
 
Date/Time
WST
Temp

°C
Wind Pressure Rain
since 9am
mm
Weather Cloud Vis
km
Sea
Height
m
Swell
Dir
 
Speed
knots
Gust
knots
hPa Trend Height
m
Period
s
Dir
18/11:30pm - NE 1 2 1018.7 - 0.0 - - - - - - -
18/11:00pm - NNE 2 3 1018.9 - 0.0 - - - - - - -
18/10:30pm - NE 4 4 1019.3 - 0.0 - - - - - - -
18/10:00pm - ENE 3 4 1019.6 - 0.0 - - - - - - -
18/09:30pm - NE 4 5 1019.6 - 0.0 - - - - - - -
18/09:00pm - NE 2 4 1019.8 - 0.0 - - - - - - -
18/08:30pm - NE 4 5 1019.7 - 0.0 - - - - - - -
18/08:00pm - ENE 4 7 1019.8 - 0.0 - - - - - - -
18/07:30pm - ENE 5 7 1019.9 - 0.0 - - - - - - -
18/07:00pm - ENE 6 9 1020.0 - 0.0 - - - - - - -
18/06:30pm - ENE 7 12 1019.9 - 0.0 - - - - - - -
18/06:00pm - E 8 12 1019.6 - 0.0 - - - - - - -
18/05:30pm - E 8 14 1019.4 - 0.0 - - - - - - -
18/05:00pm - E 11 15 1019.2 - 0.0 - - - - - - -
18/04:30pm - E 12 19 1019.2 - 0.0 - - - - - - -
18/04:00pm - ESE 13 20 1019.2 - 0.0 - - - - - - -
18/03:30pm - ESE 14 21 1019.3 - 0.0 - - - - - - -
18/03:00pm - ESE 13 18 1019.5 - 0.0 - - - - - - -
18/02:30pm - SE 13 17 1019.8 - 0.0 - - - - - - -
18/02:00pm - SE 13 17 1019.9 - 0.0 - - - - - - -
18/01:30pm - SE 13 17 1020.4 - 0.0 - - - - - - -
18/01:00pm - ESE 11 16 1020.7 - 0.0 - - - - - - -
18/12:30pm - SE 12 16 1021.3 - 0.0 - - - - - - -
18/12:00pm - SE 10 14 1021.8 - 0.0 - - - - - - -
18/11:30am - NE 5 12 1022.4 - 0.0 - - - - - - -
18/11:00am - NE 4 10 1022.9 - 0.0 - - - - - - -
18/10:30am - N 7 10 1023.2 - 0.0 - - - - - - -
18/10:00am - NNE 7 12 1023.6 - 0.0 - - - - - - -
18/09:30am - NNE 10 15 1024.1 - 0.0 - - - - - - -
18/09:00am - NNE 9 14 1024.1 - 0.2 - - - - - - -
18/08:30am - NNE 10 14 1024.5 - 0.2 - - - - - - -
18/08:00am - NNE 7 10 1024.5 - 0.2 - - - - - - -
18/07:30am - NNE 4 5 1024.6 - 0.2 - - - - - - -
18/07:00am - N 3 4 1024.3 - 0.2 - - - - - - -
18/06:30am - N 3 4 1024.4 - 0.2 - - - - - - -
18/06:00am - NNE 3 4 1024.1 - 0.2 - - - - - - -
18/05:30am - NNE 4 5 1024.2 - 0.2 - - - - - - -
18/05:00am - NNE 4 5 1024.0 - 0.2 - - - - - - -
18/04:30am - NNE 3 4 1023.9 - 0.2 - - - - - - -
18/04:00am - NNE 3 4 1023.7 - 0.2 - - - - - - -
18/03:30am - N 3 4 1023.7 - 0.2 - - - - - - -
18/03:00am - NE 2 4 1023.5 - 0.2 - - - - - - -
18/02:30am - NE 3 4 1023.5 - 0.2 - - - - - - -
18/02:00am - E 3 4 1023.6 - 0.2 - - - - - - -
18/01:30am - E 3 5 1023.8 - 0.2 - - - - - - -
18/01:00am - ESE 5 9 1023.8 - 0.2 - - - - - - -
18/12:30am - ESE 6 8 1023.7 - 0.2 - - - - - - -
18/12:00am - ESE 5 9 1023.6 - 0.2 - - - - - - -
 
Date/Time
WST
Temp

°C
Wind Pressure Rain
since 9am
mm
Weather Cloud Vis
km
Sea
Height
m
Swell
Dir
 
Speed
knots
Gust
knots
hPa Trend Height
m
Period
s
Dir
17/11:30pm - ESE 5 7 1023.9 - 0.2 - - - - - - -
17/11:00pm - SE 6 8 1023.7 - 0.2 - - - - - - -
17/10:30pm - SE 5 8 1023.9 - 0.2 - - - - - - -
17/10:00pm - SE 7 10 1023.8 - 0.2 - - - - - - -
17/09:30pm - SSE 8 11 1023.8 - 0.2 - - - - - - -
17/09:00pm - SSE 8 11 1023.7 - 0.2 - - - - - - -
17/08:30pm - SSE 9 14 1023.7 - 0.2 - - - - - - -
17/08:00pm - S 10 14 1023.5 - 0.2 - - - - - - -
17/07:30pm - S 12 16 1023.2 - 0.2 - - - - - - -
17/07:00pm - S 8 11 1022.8 - 0.2 - - - - - - -
17/06:30pm - S 9 13 1022.6 - 0.2 - - - - - - -
17/06:00pm - S 10 14 1022.0 - 0.2 - - - - - - -
17/05:30pm - S 10 13 1021.6 - 0.2 - - - - - - -
17/05:00pm - S 10 14 1021.2 - 0.2 - - - - - - -
17/04:30pm - S 12 15 1021.0 - 0.2 - - - - - - -
17/04:00pm - S 12 15 1020.7 - 0.2 - - - - - - -
17/03:30pm - S 10 14 1020.7 - 0.2 - - - - - - -
17/03:00pm - S 9 13 1020.5 - 0.2 - - - - - - -
17/02:30pm - S 9 13 1020.4 - 0.2 - - - - - - -
17/02:00pm - S 11 16 1020.0 - 0.2 - - - - - - -
17/01:30pm - S 11 15 1020.0 - 0.2 - - - - - - -
17/01:00pm - SSW 13 17 1020.0 - 0.2 - - - - - - -
17/12:30pm - SW 10 13 1020.2 - 0.2 - - - - - - -
17/12:00pm - SSW 9 13 1020.3 - 0.2 Recent precip. - - - - - -
17/11:30am - SW 11 14 1020.7 - 0.2 - - - - - - -
17/11:00am - SW 12 15 1020.6 - 0.0 - - - - - - -
17/10:30am - W 8 13 1020.7 - 0.0 - - - - - - -
17/10:00am - WNW 6 10 1020.4 - 0.0 - - - - - - -
17/09:30am - WNW 7 9 1020.6 - 0.0 - - - - - - -
17/09:00am - W 7 10 1020.6 - 0.0 - - - - - - -
17/08:30am - W 3 7 1020.7 - 0.0 - - - - - - -
17/08:00am - W 5 7 1020.4 - 0.0 - - - - - - -
17/07:30am - NW 4 5 1020.2 - 0.0 - - - - - - -
17/07:00am - NW 5 5 1019.8 - 0.0 - - - - - - -
17/06:30am - NW 5 6 1019.6 - 0.0 - - - - - - -
17/06:00am - NW 4 5 1019.3 - 0.0 - - - - - - -
17/05:30am - WNW 2 2 1019.2 - 0.0 - - - - - - -
17/05:00am - WNW 3 5 1019.1 - 0.0 - - - - - - -
17/04:30am - NNW 2 4 1019.1 - 0.0 - - - - - - -
17/04:00am - N 3 4 1018.7 - 0.0 - - - - - - -
17/03:30am - N 3 3 1018.6 - 0.0 - - - - - - -
17/03:00am - N 3 3 1018.5 - 0.0 - - - - - - -
17/02:30am - N 4 4 1018.5 - 0.0 - - - - - - -
17/02:00am - NW 3 3 1018.9 - 0.0 - - - - - - -
17/01:30am - NNW 4 4 1019.0 - 0.0 - - - - - - -
17/01:00am - NNW 2 3 1018.8 - 0.0 - - - - - - -
17/12:30am - N 2 3 1019.0 - 0.0 - - - - - - -
17/12:00am - N 2 3 1018.9 - 0.0 - - - - - - -
 
Date/Time
WST
Temp

°C
Wind Pressure Rain
since 9am
mm
Weather Cloud Vis
km
Sea
Height
m
Swell
Dir
 
Speed
knots
Gust
knots
hPa Trend Height
m
Period
s
Dir
16/11:30pm - N 3 4 1019.0 - 0.0 - - - - - - -
16/11:00pm - N 1 1 1019.1 - 0.0 - - - - - - -
16/10:30pm - N 1 2 1019.2 - 0.0 - - - - - - -
16/10:00pm - NNE 3 4 1019.3 - 0.0 - - - - - - -
16/09:30pm - NNE 3 4 1019.5 - 0.0 - - - - - - -
16/09:00pm - NNE 3 4 1019.5 - 0.0 - - - - - - -
16/08:30pm - NE 3 4 1019.6 - 0.0 - - - - - - -
16/08:00pm - ENE 2 3 1019.5 - 0.0 - - - - - - -
16/07:30pm - ESE 4 5 1019.6 - 0.0 - - - - - - -
16/07:00pm - SE 4 5 1019.5 - 0.0 - - - - - - -
16/06:30pm - SE 5 6 1019.4 - 0.0 - - - - - - -
16/06:00pm - SE 4 6 1019.2 - 0.0 - - - - - - -
16/05:30pm - SE 6 8 1019.2 - 0.0 - - - - - - -
16/05:00pm - SSE 7 10 1019.1 - 0.0 - - - - - - -
16/04:30pm - S 8 11 1019.3 - 0.0 - - - - - - -
16/04:00pm - S 8 11 1019.0 - 0.0 - - - - - - -
16/03:30pm - SSE 8 11 1019.1 - 0.0 - - - - - - -
16/03:00pm - S 7 9 1019.2 - 0.0 - - - - - - -
16/02:30pm - SSE 8 11 1019.3 - 0.0 - - - - - - -
16/02:00pm - SSE 8 10 1019.3 - 0.0 - - - - - - -
16/01:30pm - S 8 10 1019.7 - 0.0 - - - - - - -
16/01:00pm - S 9 13 1019.9 - 0.0 - - - - - - -
16/12:30pm - SSW 10 12 1020.4 - 0.0 - - - - - - -
16/12:00pm - SSW 7 10 1020.9 - 0.0 - - - - - - -
16/11:30am - SSW 7 9 1021.6 - 0.0 - - - - - - -
16/11:00am - SSW 6 9 1021.9 - 0.0 - - - - - - -
16/10:30am - SW 6 9 1022.2 - 0.0 - - - - - - -
16/10:00am - SW 7 9 1022.3 - 0.0 - - - - - - -
16/09:30am - WSW 4 6 1022.6 - 0.0 - - - - - - -
16/09:00am - W 5 8 1022.8 - 0.6 - - - - - - -
16/08:30am - WNW 4 6 1022.8 - 0.6 - - - - - - -
16/08:00am - NNW 4 5 1022.6 - 0.6 - - - - - - -
16/07:30am - NW 3 4 1022.4 - 0.6 - - - - - - -
16/07:00am - WSW 5 8 1022.0 - 0.6 - - - - - - -
16/06:30am - WSW 6 8 1021.8 - 0.6 - - - - - - -
16/06:00am - WSW 7 10 1021.7 - 0.6 - - - - - - -
16/05:30am - SW 7 10 1021.5 - 0.6 - - - - - - -
16/05:00am - SW 6 10 1021.2 - 0.6 - - - - - - -
16/04:30am - SW 7 10 1021.2 - 0.6 - - - - - - -
16/04:00am - SSW 7 11 1021.0 - 0.6 - - - - - - -
16/03:30am - SW 8 12 1021.0 - 0.6 - - - - - - -

Other Formats:

Comma delimited format used in spreadsheet applications
http://www.bom.gov.au/fwo/IDW60701/IDW60701.95635.axf

JavaScript Object Notation format (JSON) in row-major order
http://www.bom.gov.au/fwo/IDW60701/IDW60701.95635.json